Time;durP1;ratioP1;P1;durP2;ratioP2;P2;SDS_P1;SDS_P2;PMS_P1;PMS_P2;Temp;Humidity;BMP_temperature;BMP_pressure;BME280_temperature;BME280_humidity;BME280_pressure;Samples;Min_cycle;Max_cycle;Signal;HPM_P1;HPM_P2
2022/10/31 00:11:49;;;;;;;75.33;52.53;;;7.30;99.90;;;;;;4866860;28;20260;-82
2022/10/31 00:46:37;;;;;;;76.80;51.37;;;7.10;99.90;;;;;;4721503;29;20382;-82
2022/10/31 01:42:55;;;;;;;63.97;46.63;;;6.70;99.90;;;;;;4840314;28;20745;-83
2022/10/31 02:07:49;;;;;;;83.27;51.23;;;6.60;99.90;;;;;;4721476;29;20691;-83
2022/10/31 02:33:46;;;;;;;82.07;57.40;;;6.50;99.90;;;;;;4743224;29;20273;-81
2022/10/31 03:13:47;;;;;;;91.00;61.40;;;6.00;99.90;;;;;;4733793;29;20703;-85
2022/10/31 03:44:34;;;;;;;92.03;63.23;;;5.90;99.90;;;;;;4769379;29;20297;-83
2022/10/31 04:14:35;;;;;;;82.83;56.00;;;5.80;99.90;;;;;;4640591;30;21343;-83
2022/10/31 04:34:50;;;;;;;78.20;53.77;;;5.60;99.90;;;;;;4613537;30;20246;-83
2022/10/31 05:10:40;;;;;;;105.40;60.80;;;5.50;99.90;;;;;;4629416;29;20776;-83
2022/10/31 05:40:45;;;;;;;141.23;73.37;;;5.40;99.90;;;;;;4647461;29;20688;-79
2022/10/31 06:06:37;;;;;;;138.43;63.97;;;5.90;99.90;;;;;;4668947;29;20263;-82
2022/10/31 06:47:20;;;;;;;135.77;52.40;;;6.90;99.90;;;;;;4900162;28;20302;-81
2022/10/31 07:17:48;;;;;;;73.07;42.23;;;7.90;99.90;;;;;;4781685;29;20794;-83
2022/10/31 07:47:58;;;;;;;73.87;36.47;;;8.40;99.90;;;;;;4821020;28;20271;-82
2022/10/31 08:18:28;;;;;;;67.20;28.57;;;9.40;99.90;;;;;;4785360;29;20282;-82
2022/10/31 08:48:49;;;;;;;35.23;23.50;;;10.30;99.90;;;;;;4662763;29;20214;-81
2022/10/31 09:14:14;;;;;;;36.37;26.93;;;11.00;99.90;;;;;;4723317;29;20223;-81
2022/10/31 09:39:40;;;;;;;45.93;31.87;;;11.30;99.90;;;;;;4767153;29;20202;-82
2022/10/31 10:05:05;;;;;;;58.30;37.50;;;11.40;99.90;;;;;;4773839;29;20490;-83
2022/10/31 10:34:59;;;;;;;38.43;27.27;;;12.30;99.90;;;;;;4750961;28;20745;-84
2022/10/31 11:06:00;;;;;;;28.33;21.20;;;13.20;99.90;;;;;;4875343;28;20224;-82
2022/10/31 11:31:26;;;;;;;27.40;19.67;;;13.90;99.90;;;;;;4822353;28;20465;-84
2022/10/31 11:35:46;;;;;;;28.60;21.33;;;14.00;99.90;;;;;;4782046;28;20575;-85
2022/10/31 11:56:39;;;;;;;30.30;19.13;;;14.30;99.00;;;;;;4747600;29;20620;-84
2022/10/31 13:02:41;;;;;;;21.50;16.50;;;15.20;97.50;;;;;;4970466;28;20266;-85
2022/10/31 13:27:25;;;;;;;29.80;21.30;;;15.30;94.60;;;;;;4709435;29;20494;-83
2022/10/31 13:52:47;;;;;;;33.20;23.20;;;15.10;98.10;;;;;;4681421;29;20385;-82
2022/10/31 14:18:32;;;;;;;38.70;26.40;;;14.50;99.90;;;;;;4782756;29;20209;-85
2022/10/31 14:53:47;;;;;;;39.20;27.03;;;13.10;99.90;;;;;;4652205;29;20528;-81
2022/10/31 15:19:26;;;;;;;59.93;29.87;;;12.00;99.90;;;;;;4598099;30;20794;-85
2022/10/31 15:39:43;;;;;;;69.40;33.67;;;11.40;99.90;;;;;;4701913;29;20209;-82
2022/10/31 16:14:45;;;;;;;94.87;43.03;;;11.20;99.90;;;;;;4692671;29;20788;-83
2022/10/31 16:35:26;;;;;;;96.27;43.40;;;11.60;99.90;;;;;;4671600;29;20589;-85
2022/10/31 17:00:59;;;;;;;100.90;42.13;;;11.90;99.90;;;;;;4784150;29;20211;-85
2022/10/31 17:30:47;;;;;;;110.67;42.33;;;11.80;99.90;;;;;;4747431;29;20603;-83
2022/10/31 17:56:29;;;;;;;134.20;45.27;;;11.80;99.90;;;;;;4839794;28;20262;-84
2022/10/31 18:17:07;;;;;;;127.23;43.90;;;11.80;99.90;;;;;;4838170;28;20663;-83
2022/10/31 18:41:53;;;;;;;130.97;48.10;;;12.00;99.90;;;;;;4579408;30;20483;-82
2022/10/31 19:07:53;;;;;;;148.70;50.87;;;12.10;99.90;;;;;;4716875;29;20259;-83
2022/10/31 19:27:33;;;;;;;179.13;54.47;;;12.20;99.90;;;;;;6128087;22;21565;31
2022/10/31 19:53:13;;;;;;;218.13;61.77;;;12.10;99.90;;;;;;4680502;29;20282;-83
2022/10/31 20:38:53;;;;;;;243.03;63.67;;;12.10;99.90;;;;;;4779717;29;20334;-84
2022/10/31 21:13:53;;;;;;;216.47;58.83;;;12.20;99.90;;;;;;4831874;29;20555;-85
2022/10/31 21:44:27;;;;;;;220.07;58.53;;;12.40;99.90;;;;;;4800460;29;20495;-83
2022/10/31 22:15:27;;;;;;;186.33;52.13;;;12.40;99.90;;;;;;4859388;28;20216;-83
2022/10/31 22:45:59;;;;;;;125.47;42.63;;;12.60;99.90;;;;;;4679291;29;20305;-83
2022/10/31 22:50:15;;;;;;;139.13;41.27;;;12.70;99.90;;;;;;4667694;29;20624;-84
2022/10/31 23:36:04;;;;;;;108.13;36.17;;;12.50;99.90;;;;;;4756014;29;20545;-86
